Time;durP1;ratioP1;P1;durP2;ratioP2;P2;SDS_P1;SDS_P2;PMS_P1;PMS_P2;Temp;Humidity;BMP_temperature;BMP_pressure;BME280_temperature;BME280_humidity;BME280_pressure;Samples;Min_cycle;Max_cycle;Signal;HPM_P1;HPM_P2
2021/08/08 00:01:20;;;;;;;2.77;1.77;;;;;;;18.53;100.00;94687.94;10490056;28;20107;-73
2021/08/08 00:06:20;;;;;;;1.77;1.47;;;;;;;18.42;100.00;94694.88;10489565;28;20504;-73
2021/08/08 00:11:20;;;;;;;1.97;1.67;;;;;;;18.52;100.00;94691.78;10489062;28;20297;-73
2021/08/08 00:16:21;;;;;;;2.53;1.70;;;;;;;18.62;100.00;94696.88;10488980;28;20031;-73
2021/08/08 00:21:21;;;;;;;3.27;1.60;;;;;;;18.55;100.00;94693.06;10488951;28;21128;-73
2021/08/08 00:26:22;;;;;;;2.65;1.83;;;;;;;18.43;100.00;94696.44;10488138;28;20330;-73
2021/08/08 00:31:23;;;;;;;2.33;1.47;;;;;;;18.40;100.00;94694.38;10488543;28;20044;-73
2021/08/08 00:36:23;;;;;;;3.50;1.70;;;;;;;18.40;100.00;94695.16;10488628;28;20653;-73
2021/08/08 00:41:23;;;;;;;1.77;1.50;;;;;;;18.40;100.00;94694.38;10488697;28;20025;-73
2021/08/08 00:46:24;;;;;;;3.10;1.60;;;;;;;18.36;100.00;94699.66;10488305;28;20051;-73
2021/08/08 00:51:28;;;;;;;5.25;1.67;;;;;;;18.21;100.00;94708.31;10488414;28;20036;-73
2021/08/08 00:56:29;;;;;;;2.88;1.50;;;;;;;18.15;100.00;94718.56;10487826;28;20029;-73
2021/08/08 01:01:35;;;;;;;4.05;2.00;;;;;;;17.97;100.00;94725.16;10488140;28;20020;-74
2021/08/08 01:06:58;;;;;;;4.38;1.70;;;;;;;17.91;100.00;94725.31;10488063;28;20029;-74
2021/08/08 01:12:00;;;;;;;6.20;2.28;;;;;;;17.89;100.00;94741.13;10487664;28;20029;-73
2021/08/08 01:17:04;;;;;;;3.63;2.53;;;;;;;17.94;100.00;94740.19;10487661;28;20836;-73
2021/08/08 01:22:07;;;;;;;5.40;2.05;;;;;;;17.92;100.00;94740.50;10487289;28;20016;-74
2021/08/08 01:27:07;;;;;;;4.57;2.67;;;;;;;17.68;100.00;94742.84;10493213;28;20071;-74
2021/08/08 01:32:07;;;;;;;3.22;2.28;;;;;;;17.49;100.00;94743.94;10495779;28;20115;-74
2021/08/08 01:37:08;;;;;;;5.90;2.30;;;;;;;17.55;100.00;94744.59;10495565;28;20052;-73
2021/08/08 01:42:10;;;;;;;2.40;2.13;;;;;;;17.46;100.00;94749.22;10495437;28;20070;-73
2021/08/08 01:47:13;;;;;;;4.43;1.88;;;;;;;17.53;100.00;94741.41;10494706;28;20645;-73
2021/08/08 01:52:14;;;;;;;3.70;2.45;;;;;;;17.69;100.00;94741.75;10495182;28;20418;-73
2021/08/08 01:57:15;;;;;;;4.18;2.30;;;;;;;17.73;100.00;94724.47;10494903;28;20032;-73
2021/08/08 02:02:16;;;;;;;6.03;2.30;;;;;;;17.69;100.00;94737.09;10494537;28;20127;-74
2021/08/08 02:07:18;;;;;;;5.47;2.20;;;;;;;17.66;100.00;94743.16;10494549;28;20098;-74
2021/08/08 02:12:19;;;;;;;2.67;2.00;;;;;;;17.60;100.00;94745.25;10496237;28;20087;-74
2021/08/08 02:17:20;;;;;;;6.38;2.20;;;;;;;17.63;100.00;94745.75;10494015;28;20052;-73
2021/08/08 02:22:20;;;;;;;3.30;2.60;;;;;;;17.66;100.00;94750.53;10494266;28;20095;-73
2021/08/08 02:27:21;;;;;;;2.70;2.47;;;;;;;17.66;100.00;94754.03;10493629;28;20855;-74
2021/08/08 02:32:21;;;;;;;3.23;2.30;;;;;;;17.62;100.00;94753.06;10493311;28;20360;-74
2021/08/08 02:37:21;;;;;;;2.90;2.20;;;;;;;17.57;100.00;94745.88;10492985;28;20025;-74
2021/08/08 02:42:22;;;;;;;5.00;2.50;;;;;;;17.57;100.00;94745.09;10475335;28;20020;-73
2021/08/08 02:47:22;;;;;;;2.60;1.90;;;;;;;17.38;100.00;94757.03;10475097;28;20026;-73
2021/08/08 02:52:24;;;;;;;3.07;2.00;;;;;;;17.35;100.00;94767.75;10474182;28;20670;-73
2021/08/08 02:57:25;;;;;;;5.85;2.00;;;;;;;17.36;100.00;94770.13;10492385;28;20277;-73
2021/08/08 03:02:25;;;;;;;2.87;2.07;;;;;;;17.25;100.00;94777.75;10492102;28;20030;-73
2021/08/08 03:07:25;;;;;;;2.27;2.07;;;;;;;17.11;100.00;94781.69;10492253;28;20111;-73
2021/08/08 03:12:26;;;;;;;3.53;1.90;;;;;;;16.87;100.00;94780.94;10492306;28;20071;-73
2021/08/08 03:17:26;;;;;;;2.53;1.90;;;;;;;16.81;100.00;94793.03;10491750;28;20032;-73
2021/08/08 03:22:26;;;;;;;2.30;2.00;;;;;;;16.74;100.00;94800.81;10491265;28;20099;-73
2021/08/08 03:27:27;;;;;;;8.23;2.70;;;;;;;16.68;100.00;94796.63;10490950;28;20048;-73
2021/08/08 03:32:27;;;;;;;4.23;2.77;;;;;;;16.72;100.00;94792.19;10491038;28;20048;-73
2021/08/08 03:37:27;;;;;;;2.83;2.07;;;;;;;16.72;100.00;94792.19;10490878;28;20090;-73
2021/08/08 03:42:28;;;;;;;2.73;1.90;;;;;;;16.70;100.00;94792.50;10490145;28;20024;-73
2021/08/08 03:47:28;;;;;;;5.27;2.07;;;;;;;16.74;100.00;94796.22;10471944;28;20082;-73
2021/08/08 03:52:28;;;;;;;3.60;2.50;;;;;;;16.70;100.00;94795.22;10489984;28;20024;-73
2021/08/08 03:57:29;;;;;;;4.13;2.87;;;;;;;16.70;100.00;94806.06;10489751;28;20035;-73
2021/08/08 04:02:29;;;;;;;5.05;2.70;;;;;;;16.65;100.00;94803.50;10490222;28;20297;-73
2021/08/08 04:07:30;;;;;;;3.05;2.28;;;;;;;16.57;100.00;94804.22;10489205;28;20495;-73
2021/08/08 04:12:30;;;;;;;6.50;2.53;;;;;;;16.55;100.00;94815.38;10489438;28;20108;-73
2021/08/08 04:17:31;;;;;;;3.03;2.43;;;;;;;16.56;100.00;94822.44;10489036;28;20028;-73
2021/08/08 04:22:31;;;;;;;7.70;1.97;;;;;;;16.57;100.00;94829.44;10489163;28;20270;-73
2021/08/08 04:27:31;;;;;;;3.57;2.50;;;;;;;16.69;100.00;94828.91;10488437;28;20290;-73
2021/08/08 04:32:32;;;;;;;12.30;2.30;;;;;;;16.77;100.00;94826.53;10488821;28;20035;-73
2021/08/08 04:37:32;;;;;;;4.80;2.90;;;;;;;16.85;100.00;94829.28;10488922;28;20065;-73
2021/08/08 04:42:36;;;;;;;3.70;2.77;;;;;;;16.96;100.00;94829.88;10488446;28;20378;-73
2021/08/08 04:47:37;;;;;;;3.67;2.67;;;;;;;17.12;100.00;94822.13;10488508;28;20021;-73
2021/08/08 04:52:38;;;;;;;9.07;2.42;;;;;;;17.32;100.00;94822.72;10488301;28;20055;-73
2021/08/08 04:57:38;;;;;;;12.45;3.08;;;;;;;17.82;100.00;94825.09;10487755;28;20035;-73
2021/08/08 05:02:46;;;;;;;12.35;2.78;;;;;;;18.64;100.00;94820.97;10487385;28;20412;-73
2021/08/08 05:07:46;;;;;;;6.73;2.73;;;;;;;19.25;100.00;94823.59;10487863;28;20047;-73
2021/08/08 05:12:46;;;;;;;3.97;1.90;;;;;;;20.14;97.18;94828.28;10487808;28;20028;-73
2021/08/08 05:17:47;;;;;;;2.73;2.03;;;;;;;20.83;89.71;94837.03;10469904;28;20278;-73
2021/08/08 05:22:47;;;;;;;2.58;1.75;;;;;;;20.89;87.86;94849.38;10487467;28;20270;-73
2021/08/08 05:27:48;;;;;;;5.90;2.20;;;;;;;21.40;83.86;94842.88;10487064;28;20102;-73
2021/08/08 05:32:48;;;;;;;3.27;1.70;;;;;;;21.64;81.65;94842.94;10487415;28;20343;-73
2021/08/08 05:37:48;;;;;;;4.23;1.73;;;;;;;22.04;74.15;94844.19;10486909;28;20028;-73
2021/08/08 05:42:50;;;;;;;4.17;1.93;;;;;;;22.93;66.62;94845.22;10486918;28;20026;-73
2021/08/08 05:47:51;;;;;;;4.72;2.28;;;;;;;23.84;62.04;94842.84;10486947;28;20028;-73
2021/08/08 05:52:52;;;;;;;2.83;1.70;;;;;;;24.36;58.14;94846.41;10487029;28;20028;-73
2021/08/08 05:57:52;;;;;;;2.65;1.23;;;;;;;24.86;53.54;94849.44;10486859;28;20028;-73
2021/08/08 06:02:52;;;;;;;2.10;1.77;;;;;;;24.26;56.67;94838.72;10486911;28;20024;-73
2021/08/08 06:07:53;;;;;;;2.13;1.83;;;;;;;24.30;57.62;94850.59;10486951;28;20555;-73
2021/08/08 06:12:53;;;;;;;2.67;1.67;;;;;;;24.85;55.04;94836.84;10490623;28;20399;-73
2021/08/08 06:17:54;;;;;;;3.20;1.60;;;;;;;26.34;51.09;94832.72;10494287;28;20035;-73
2021/08/08 06:22:54;;;;;;;2.15;1.50;;;;;;;27.70;47.25;94841.78;10493812;28;20078;-73
2021/08/08 06:27:55;;;;;;;1.95;1.52;;;;;;;27.61;44.35;94833.03;10493310;28;20056;-73
2021/08/08 06:32:55;;;;;;;2.60;1.50;;;;;;;28.01;43.15;94836.16;10493249;28;20025;-73
2021/08/08 06:37:55;;;;;;;2.30;1.30;;;;;;;29.07;41.76;94839.09;10492992;28;20270;-73
2021/08/08 06:42:56;;;;;;;2.70;1.53;;;;;;;29.83;40.16;94835.31;10492812;28;20086;-73
2021/08/08 06:47:56;;;;;;;2.20;1.40;;;;;;;30.89;38.00;94830.41;10492352;28;20279;-73
2021/08/08 06:52:57;;;;;;;4.93;1.30;;;;;;;31.97;34.81;94825.03;10492995;28;20294;-73
2021/08/08 06:57:57;;;;;;;5.43;1.77;;;;;;;32.35;34.69;94827.09;10492497;28;20044;-73
2021/08/08 07:02:58;;;;;;;2.20;1.43;;;;;;;32.61;32.92;94831.19;10492253;28;20112;-73
2021/08/08 07:07:58;;;;;;;2.17;1.60;;;;;;;34.18;31.24;94825.91;10492211;28;20275;-73
2021/08/08 07:12:59;;;;;;;2.57;1.20;;;;;;;34.87;30.97;94831.84;10492129;28;20123;-73
2021/08/08 07:17:59;;;;;;;1.75;1.30;;;;;;;35.36;28.78;94836.03;10491631;28;20111;-73
2021/08/08 07:22:59;;;;;;;10.83;1.50;;;;;;;36.18;28.16;94830.53;10490552;28;20479;-72
2021/08/08 07:28:00;;;;;;;4.03;1.43;;;;;;;35.19;29.58;94832.38;10491377;28;20092;-73
2021/08/08 07:33:00;;;;;;;1.30;1.00;;;;;;;36.23;28.08;94820.84;10490864;28;20032;-73
2021/08/08 07:38:01;;;;;;;5.83;1.67;;;;;;;36.78;26.98;94819.00;10491074;28;20275;-73
2021/08/08 07:43:02;;;;;;;2.53;1.30;;;;;;;37.01;26.07;94813.56;10490697;28;20024;-73
2021/08/08 07:48:03;;;;;;;2.10;1.30;;;;;;;37.97;25.68;94809.06;10490197;28;20343;-73
2021/08/08 07:53:05;;;;;;;5.35;1.55;;;;;;;38.16;25.00;94814.91;10490141;28;20481;-73
2021/08/08 07:58:05;;;;;;;6.20;1.75;;;;;;;38.51;23.93;94803.72;10489904;28;20032;-73
2021/08/08 08:03:06;;;;;;;3.73;2.30;;;;;;;37.87;25.14;94801.81;10489728;28;20026;-73
2021/08/08 08:08:06;;;;;;;3.77;2.00;;;;;;;39.17;24.23;94808.59;10489575;28;20165;-73
2021/08/08 08:13:07;;;;;;;4.60;2.10;;;;;;;40.31;22.20;94808.91;10489512;28;20314;-73
2021/08/08 08:18:08;;;;;;;4.50;2.10;;;;;;;38.77;23.62;94805.19;10488932;28;20032;-73
2021/08/08 08:23:08;;;;;;;7.43;2.97;;;;;;;39.61;22.41;94812.13;10488828;28;20454;-73
2021/08/08 08:28:12;;;;;;;5.93;3.45;;;;;;;40.44;21.96;94803.16;10489068;28;20520;-73
2021/08/08 08:33:12;;;;;;;6.10;3.78;;;;;;;40.36;22.23;94801.09;10488541;28;20864;-73
2021/08/08 08:38:12;;;;;;;5.83;2.90;;;;;;;40.88;21.34;94782.31;10488785;28;20032;-73
2021/08/08 08:43:14;;;;;;;4.67;1.90;;;;;;;42.07;20.43;94787.31;10488416;28;20381;-73
2021/08/08 08:48:17;;;;;;;3.60;2.42;;;;;;;41.98;20.86;94788.91;10487698;28;20043;-73
2021/08/08 08:53:18;;;;;;;8.43;2.55;;;;;;;41.58;21.33;94778.72;10488558;28;20036;-73
2021/08/08 08:58:19;;;;;;;6.75;2.70;;;;;;;42.18;20.70;94774.19;10488339;28;20100;-73
2021/08/08 09:03:20;;;;;;;3.85;2.63;;;;;;;43.23;19.37;94773.69;10487611;28;20020;-73
2021/08/08 09:08:20;;;;;;;8.32;2.97;;;;;;;42.74;20.56;94778.69;10488021;28;20032;-74
2021/08/08 09:13:21;;;;;;;4.87;1.60;;;;;;;43.02;19.49;94774.34;10487742;28;20083;-73
2021/08/08 09:18:22;;;;;;;4.33;2.80;;;;;;;42.78;19.72;94774.41;10487777;28;20026;-73
2021/08/08 09:23:33;;;;;;;2.63;1.60;;;;;;;42.96;19.15;94773.44;10487525;28;20372;-73
2021/08/08 09:28:34;;;;;;;4.75;1.40;;;;;;;43.58;18.68;94773.00;10486802;28;20052;-73
2021/08/08 09:33:41;;;;;;;6.87;2.00;;;;;;;44.49;18.43;94775.03;10487258;28;20033;-74
2021/08/08 09:38:44;;;;;;;4.25;1.80;;;;;;;45.16;18.08;94760.06;10486854;28;20526;-74
2021/08/08 09:43:44;;;;;;;3.10;1.60;;;;;;;46.04;17.75;94756.91;10487266;28;20020;-74
2021/08/08 09:48:44;;;;;;;6.23;1.70;;;;;;;46.46;16.60;94763.03;10493272;28;20029;-73
2021/08/08 09:53:54;;;;;;;6.83;1.40;;;;;;;47.18;16.85;94761.69;10494670;28;20032;-73
2021/08/08 09:59:05;;;;;;;2.53;1.27;;;;;;;45.75;16.66;94760.81;10510833;28;20101;-73
2021/08/08 10:04:08;;;;;;;3.08;1.40;;;;;;;46.65;16.60;94746.34;10494787;28;20028;-74
2021/08/08 10:09:11;;;;;;;3.17;1.27;;;;;;;47.50;15.83;94747.25;10493988;28;20031;-74
2021/08/08 10:14:13;;;;;;;2.97;1.27;;;;;;;47.36;16.00;94749.03;10494575;28;20060;-74
2021/08/08 10:19:18;;;;;;;1.83;0.70;;;;;;;47.39;15.91;94742.34;10494013;28;20032;-73
2021/08/08 10:24:19;;;;;;;3.58;0.90;;;;;;;47.88;14.94;94738.41;10493893;28;20442;-74
2021/08/08 10:29:20;;;;;;;1.10;0.77;;;;;;;47.43;15.45;94735.63;10493381;28;20032;-74
2021/08/08 10:34:30;;;;;;;1.13;0.80;;;;;;;48.45;14.69;94732.53;10493080;28;20039;-74
2021/08/08 10:39:40;;;;;;;2.72;0.90;;;;;;;47.55;15.37;94731.47;10475412;28;20113;-74
2021/08/08 10:44:48;;;;;;;2.63;0.80;;;;;;;47.34;15.48;94728.09;10493548;28;20039;-74
2021/08/08 10:49:48;;;;;;;2.78;0.90;;;;;;;46.54;15.71;94712.94;10492983;28;20049;-74
2021/08/08 10:54:50;;;;;;;1.30;0.80;;;;;;;47.60;14.64;94713.56;10493090;28;20111;-74
2021/08/08 10:59:54;;;;;;;1.38;0.80;;;;;;;46.86;14.93;94719.25;10492343;28;20071;-74
2021/08/08 11:04:55;;;;;;;1.67;0.95;;;;;;;48.75;14.13;94710.63;10474435;28;20517;-74
2021/08/08 11:09:55;;;;;;;2.05;0.90;;;;;;;47.93;14.05;94709.13;10473660;28;20082;-73
2021/08/08 11:14:56;;;;;;;3.65;1.10;;;;;;;46.21;15.04;94697.31;10490660;28;20059;-74
2021/08/08 11:19:57;;;;;;;1.73;1.20;;;;;;;42.16;18.26;94705.34;10472652;28;20028;-74
2021/08/08 11:24:58;;;;;;;4.97;0.95;;;;;;;39.92;19.25;94695.91;10472258;28;20051;-73
2021/08/08 11:30:00;;;;;;;2.15;1.10;;;;;;;38.39;20.06;94698.63;10491116;28;20119;-74
2021/08/08 11:35:05;;;;;;;4.20;1.80;;;;;;;37.19;22.53;94696.16;10473269;28;20024;-74
2021/08/08 11:40:24;;;;;;;5.70;3.53;;;;;;;36.65;22.49;94680.19;10490581;28;20031;-73
2021/08/08 11:45:46;;;;;;;3.72;1.95;;;;;;;32.75;27.51;94699.44;10490849;28;20028;-73
2021/08/08 11:51:04;;;;;;;3.33;1.70;;;;;;;30.94;28.26;94696.78;10506282;28;20036;-74
2021/08/08 11:56:17;;;;;;;2.25;1.40;;;;;;;30.87;28.92;94685.69;10490186;28;20028;-74
2021/08/08 12:01:25;;;;;;;3.67;1.70;;;;;;;31.01;28.76;94682.84;10489885;28;20552;-74
2021/08/08 12:06:25;;;;;;;3.55;1.52;;;;;;;31.42;28.02;94687.69;10489521;28;20498;-74
2021/08/08 12:11:26;;;;;;;2.97;1.02;;;;;;;31.92;26.84;94685.69;10489338;28;20037;-74
2021/08/08 12:16:34;;;;;;;4.32;2.03;;;;;;;32.18;27.32;94678.69;10489630;28;20808;-74
2021/08/08 12:21:39;;;;;;;3.50;1.60;;;;;;;32.46;26.56;94674.75;10489198;28;20029;-74
2021/08/08 12:26:48;;;;;;;3.25;1.52;;;;;;;32.49;25.59;94676.69;10488533;28;20047;-74
2021/08/08 12:31:49;;;;;;;8.10;1.77;;;;;;;32.59;25.42;94674.97;10488723;28;20179;-74
2021/08/08 12:36:49;;;;;;;1.93;1.73;;;;;;;32.66;26.45;94679.66;10488365;28;20028;-74
2021/08/08 12:41:49;;;;;;;2.87;1.83;;;;;;;32.83;25.14;94673.09;10488395;28;20036;-74
2021/08/08 12:46:59;;;;;;;4.60;1.73;;;;;;;32.80;25.38;94668.34;10488384;28;20025;-74
2021/08/08 12:52:00;;;;;;;3.90;1.60;;;;;;;32.77;24.61;94674.00;10490727;28;20052;-74
2021/08/08 12:57:00;;;;;;;2.03;1.37;;;;;;;32.83;25.15;94661.94;10488455;28;20103;-74
2021/08/08 13:02:01;;;;;;;14.70;9.32;;;;;;;32.95;25.62;94663.38;10488016;28;20294;-74
2021/08/08 13:07:01;;;;;;;6.30;1.47;;;;;;;32.82;24.68;94663.19;10487581;28;20456;-74
2021/08/08 13:12:01;;;;;;;3.73;1.97;;;;;;;32.85;24.47;94658.78;10488000;28;20033;-74
2021/08/08 13:17:02;;;;;;;3.85;1.20;;;;;;;32.74;24.51;94658.91;10487899;28;20035;-74
2021/08/08 13:22:06;;;;;;;2.47;1.98;;;;;;;32.83;25.17;94650.81;10491096;28;20086;-74
2021/08/08 13:27:07;;;;;;;3.35;1.50;;;;;;;32.85;25.00;94656.75;10495981;28;20041;-75
2021/08/08 13:32:07;;;;;;;5.65;2.83;;;;;;;32.82;26.03;94645.66;10495490;28;20024;-75
2021/08/08 13:37:09;;;;;;;7.40;1.80;;;;;;;32.75;25.86;94641.00;10496228;28;20028;-75
2021/08/08 13:42:09;;;;;;;2.15;1.52;;;;;;;32.80;26.90;94645.31;10495607;28;20021;-74
2021/08/08 13:47:09;;;;;;;4.10;1.80;;;;;;;32.82;25.95;94640.09;10495264;28;20024;-75
2021/08/08 13:52:10;;;;;;;2.90;1.67;;;;;;;32.72;25.47;94650.19;10495294;28;20125;-75
2021/08/08 13:57:10;;;;;;;2.20;1.60;;;;;;;32.69;25.80;94645.47;10495173;28;20021;-75
2021/08/08 14:02:11;;;;;;;3.40;1.93;;;;;;;32.59;26.35;94646.38;10494438;28;20370;-74
2021/08/08 14:07:11;;;;;;;3.72;2.13;;;;;;;32.45;25.79;94653.69;10493818;28;20480;-74
2021/08/08 14:12:11;;;;;;;4.20;2.17;;;;;;;32.35;26.03;94657.41;10494467;28;20442;-74
2021/08/08 14:17:12;;;;;;;2.57;1.90;;;;;;;32.24;26.94;94652.00;10494072;28;20488;-74
2021/08/08 14:22:12;;;;;;;7.80;1.90;;;;;;;32.18;26.12;94648.09;10493860;28;20176;-74
2021/08/08 14:27:13;;;;;;;7.40;1.80;;;;;;;32.11;25.98;94651.72;10493553;28;20076;-74
2021/08/08 14:32:13;;;;;;;3.20;1.73;;;;;;;32.00;25.58;94657.41;10492980;28;20037;-74
2021/08/08 14:37:15;;;;;;;2.60;1.93;;;;;;;32.07;25.99;94645.41;10493031;28;20033;-74
2021/08/08 14:42:15;;;;;;;5.18;1.98;;;;;;;31.98;26.85;94647.88;10493629;28;20024;-74
2021/08/08 14:47:16;;;;;;;2.15;1.73;;;;;;;31.90;27.00;94638.84;10493081;28;20033;-74
2021/08/08 14:52:16;;;;;;;2.67;2.00;;;;;;;31.89;28.05;94645.63;10492549;28;20483;-74
2021/08/08 14:57:18;;;;;;;4.40;2.40;;;;;;;31.86;26.85;94644.44;10492768;28;20047;-74
2021/08/08 15:02:18;;;;;;;3.33;2.33;;;;;;;31.76;26.83;94642.59;10492315;28;20025;-74
2021/08/08 15:07:19;;;;;;;5.17;2.33;;;;;;;31.68;26.87;94635.53;10491905;28;20020;-74
2021/08/08 15:12:19;;;;;;;5.68;2.10;;;;;;;31.71;26.98;94633.91;10491958;28;20479;-74
2021/08/08 15:17:20;;;;;;;5.40;2.40;;;;;;;31.64;26.81;94635.53;10491741;28;20026;-74
2021/08/08 15:22:20;;;;;;;3.77;2.40;;;;;;;31.57;26.82;94629.25;10491199;28;20278;-74
2021/08/08 15:27:20;;;;;;;4.83;2.03;;;;;;;31.50;26.87;94625.34;10490828;28;20052;-74
2021/08/08 15:32:21;;;;;;;3.07;2.40;;;;;;;31.44;26.79;94627.00;10491301;28;20032;-74
2021/08/08 15:37:21;;;;;;;2.75;2.08;;;;;;;31.43;26.87;94622.63;10490893;28;20086;-74
2021/08/08 15:42:22;;;;;;;4.30;2.20;;;;;;;31.47;26.56;94622.59;10490314;28;20476;-74
2021/08/08 15:47:23;;;;;;;5.50;2.10;;;;;;;31.34;27.05;94619.53;10472015;28;20119;-74
2021/08/08 15:52:23;;;;;;;5.70;1.73;;;;;;;31.44;27.04;94615.06;10490364;28;20037;-74
2021/08/08 15:57:23;;;;;;;4.07;2.00;;;;;;;31.45;27.07;94622.22;10472334;28;20024;-74
2021/08/08 16:02:24;;;;;;;5.57;1.87;;;;;;;31.36;27.21;94620.69;10490343;28;20028;-75
2021/08/08 16:07:24;;;;;;;5.00;1.85;;;;;;;31.32;27.05;94619.16;10490070;28;20029;-75
2021/08/08 16:12:24;;;;;;;2.63;1.60;;;;;;;31.27;27.01;94627.94;10489376;28;20032;-75
2021/08/08 16:17:25;;;;;;;2.77;2.00;;;;;;;31.31;27.49;94632.28;10489558;28;20137;-75
2021/08/08 16:22:25;;;;;;;2.43;1.90;;;;;;;31.32;27.33;94633.06;10488971;28;20028;-74
2021/08/08 16:27:25;;;;;;;2.77;2.23;;;;;;;31.26;27.75;94631.91;10488735;28;20047;-74
2021/08/08 16:32:26;;;;;;;4.35;2.00;;;;;;;31.25;27.23;94633.13;10488428;28;20040;-74
2021/08/08 16:37:26;;;;;;;7.60;3.47;;;;;;;31.22;27.55;94631.94;10488936;28;20031;-74
2021/08/08 16:42:27;;;;;;;5.07;2.37;;;;;;;31.15;27.50;94632.00;10488310;28;20036;-74
2021/08/08 16:47:28;;;;;;;2.28;1.80;;;;;;;31.13;27.25;94629.66;10487631;28;20295;-76
2021/08/08 16:52:28;;;;;;;4.60;2.70;;;;;;;31.12;27.48;94633.63;10488443;28;20036;-74
2021/08/08 16:57:29;;;;;;;4.13;2.87;;;;;;;31.07;27.60;94634.03;10488304;28;20039;-74
2021/08/08 17:02:30;;;;;;;7.57;4.17;;;;;;;30.91;29.69;94639.28;10487676;28;20114;-77
2021/08/08 17:07:30;;;;;;;6.15;3.28;;;;;;;30.63;31.81;94650.19;10487128;28;20031;-74
2021/08/08 17:12:31;;;;;;;6.88;4.57;;;;;;;30.27;32.25;94646.78;10487876;28;20407;-74
2021/08/08 17:17:33;;;;;;;13.60;6.60;;;;;;;30.03;33.40;94649.25;10487370;28;20464;-73
2021/08/08 17:22:34;;;;;;;5.57;2.88;;;;;;;29.77;33.41;94659.56;10487594;28;20107;-73
2021/08/08 17:27:35;;;;;;;13.98;4.55;;;;;;;29.62;33.33;94663.56;10487179;28;20055;-73
2021/08/08 17:32:36;;;;;;;5.10;2.97;;;;;;;29.43;33.31;94671.13;10486835;28;20116;-74
2021/08/08 17:37:37;;;;;;;6.75;3.60;;;;;;;29.23;34.21;94670.69;10487192;28;20480;-74
2021/08/08 17:42:38;;;;;;;9.75;6.25;;;;;;;29.10;34.71;94678.59;10487280;28;20032;-73
2021/08/08 17:47:38;;;;;;;13.00;6.23;;;;;;;28.86;35.59;94680.16;10486480;28;20028;-74
2021/08/08 17:52:39;;;;;;;7.77;3.93;;;;;;;28.75;37.21;94684.88;10498047;28;20286;-73
2021/08/08 17:57:39;;;;;;;6.18;3.70;;;;;;;28.56;37.82;94699.81;10516089;28;20067;-73
2021/08/08 18:02:39;;;;;;;9.80;4.10;;;;;;;28.03;38.57;94724.06;10527872;28;20032;-73
2021/08/08 18:07:40;;;;;;;3.70;2.70;;;;;;;27.58;39.41;94729.66;10530774;28;20024;-73
2021/08/08 18:12:40;;;;;;;4.40;2.70;;;;;;;27.31;40.13;94723.53;10536011;28;20024;-73
2021/08/08 18:17:41;;;;;;;5.10;3.03;;;;;;;27.14;41.50;94735.19;10535476;28;20032;-73
2021/08/08 18:22:41;;;;;;;9.05;3.55;;;;;;;26.87;42.41;94736.09;10516863;28;20020;-73
2021/08/08 18:27:41;;;;;;;13.17;4.27;;;;;;;26.70;43.08;94751.28;10512022;28;20048;-73
2021/08/08 18:32:42;;;;;;;4.10;2.50;;;;;;;26.65;43.15;94756.31;10493378;28;20041;-73
2021/08/08 18:37:42;;;;;;;4.30;2.57;;;;;;;26.65;43.47;94762.59;10492976;28;20638;-74
2021/08/08 18:42:42;;;;;;;10.03;3.67;;;;;;;26.64;43.23;94768.50;10493086;28;20274;-74
2021/08/08 18:47:43;;;;;;;18.43;4.30;;;;;;;26.60;42.75;94774.00;10533698;28;20020;-74
2021/08/08 18:52:44;;;;;;;7.60;4.70;;;;;;;26.53;42.36;94782.97;10533631;28;20037;-73
2021/08/08 18:57:44;;;;;;;6.80;3.85;;;;;;;26.37;42.47;94794.19;10534014;28;20509;-73
2021/08/08 19:02:45;;;;;;;7.93;3.50;;;;;;;26.32;42.35;94802.78;10533884;28;20154;-74
2021/08/08 19:07:45;;;;;;;5.33;3.20;;;;;;;26.35;44.46;94812.25;10533614;28;20415;-74
2021/08/08 19:12:46;;;;;;;5.73;3.10;;;;;;;26.24;46.07;94820.38;10533267;28;20406;-74
2021/08/08 19:17:49;;;;;;;7.40;3.93;;;;;;;26.12;47.03;94817.81;10541397;28;20031;-74
2021/08/08 19:22:50;;;;;;;16.17;5.80;;;;;;;25.95;47.84;94817.16;10555158;28;20794;-74
2021/08/08 19:27:51;;;;;;;9.25;4.43;;;;;;;25.87;48.40;94815.47;10574114;28;20052;-74
2021/08/08 19:32:52;;;;;;;11.85;5.57;;;;;;;25.72;50.53;94815.25;10575216;28;20043;-73
2021/08/08 19:37:52;;;;;;;7.87;4.03;;;;;;;25.52;50.89;94817.28;10574566;28;20031;-73
2021/08/08 19:42:52;;;;;;;10.13;4.37;;;;;;;25.38;46.90;94823.34;10573518;28;20020;-73
2021/08/08 19:47:53;;;;;;;6.57;3.90;;;;;;;25.33;47.25;94825.59;10531992;28;20027;-73
2021/08/08 19:52:54;;;;;;;5.50;3.37;;;;;;;25.15;46.28;94834.28;10531223;28;20193;-73
2021/08/08 19:57:54;;;;;;;6.00;3.63;;;;;;;25.12;45.93;94837.75;10531772;28;20164;-74
2021/08/08 20:02:55;;;;;;;12.38;3.50;;;;;;;25.12;45.25;94828.69;10531303;28;20034;-74
2021/08/08 20:07:55;;;;;;;10.00;3.53;;;;;;;25.10;45.88;94820.03;10531389;28;20564;-74
2021/08/08 20:12:56;;;;;;;4.53;3.40;;;;;;;25.08;46.14;94821.19;10530959;28;20286;-73
2021/08/08 20:17:57;;;;;;;5.25;3.00;;;;;;;24.96;47.09;94824.09;10530441;28;20024;-73
2021/08/08 20:22:57;;;;;;;4.53;2.80;;;;;;;24.65;50.58;94831.34;10530583;28;20027;-73
2021/08/08 20:27:57;;;;;;;4.83;2.57;;;;;;;24.12;53.02;94828.22;10499039;28;20047;-73
2021/08/08 20:32:58;;;;;;;4.70;2.88;;;;;;;23.92;54.96;94827.34;10487752;28;20082;-74
2021/08/08 20:37:58;;;;;;;7.47;2.80;;;;;;;23.54;57.11;94835.88;10488330;28;20059;-74
2021/08/08 20:42:59;;;;;;;10.63;3.30;;;;;;;23.69;56.27;94825.22;10486767;28;20342;-73
2021/08/08 20:48:00;;;;;;;3.35;2.38;;;;;;;23.63;54.94;94829.41;10488192;28;20060;-72
2021/08/08 20:53:00;;;;;;;6.30;2.42;;;;;;;23.61;55.12;94832.50;10487684;28;20480;-73
2021/08/08 20:58:01;;;;;;;5.00;2.40;;;;;;;23.61;55.11;94829.75;10487629;28;20024;-73
2021/08/08 21:03:04;;;;;;;6.23;2.70;;;;;;;23.64;54.64;94822.75;10484430;28;20475;-73
2021/08/08 21:08:06;;;;;;;3.40;2.28;;;;;;;23.69;53.58;94830.72;10529251;28;20376;-73
2021/08/08 21:13:08;;;;;;;2.50;2.03;;;;;;;23.60;54.86;94841.88;10528741;28;20031;-73
2021/08/08 21:18:09;;;;;;;3.95;2.17;;;;;;;23.47;55.52;94843.91;10528864;28;20032;-73
2021/08/08 21:23:09;;;;;;;2.53;2.00;;;;;;;23.34;55.96;94845.94;10446805;28;20484;-73
2021/08/08 21:28:12;;;;;;;3.67;2.03;;;;;;;23.18;58.06;94850.63;10458581;28;20287;-73
2021/08/08 21:33:12;;;;;;;2.95;1.92;;;;;;;23.07;58.44;94849.50;10486977;28;20086;-73
2021/08/08 21:38:13;;;;;;;5.65;2.05;;;;;;;22.90;60.25;94859.63;10486866;28;20105;-73
2021/08/08 21:43:13;;;;;;;2.73;1.90;;;;;;;22.76;61.69;94859.19;10494187;28;20027;-73
2021/08/08 21:48:13;;;;;;;3.60;2.10;;;;;;;22.72;61.41;94866.53;10537336;28;20036;-72
2021/08/08 21:53:14;;;;;;;3.00;2.00;;;;;;;22.73;61.25;94871.69;10536660;28;20089;-73
2021/08/08 21:58:14;;;;;;;2.17;1.90;;;;;;;22.69;60.08;94863.34;10535885;28;20040;-72
2021/08/08 22:03:15;;;;;;;2.42;1.90;;;;;;;22.78;59.74;94870.63;10536471;28;20032;-73
2021/08/08 22:08:15;;;;;;;5.63;2.47;;;;;;;22.76;60.18;94878.38;10518258;28;20031;-72
2021/08/08 22:13:16;;;;;;;2.90;2.40;;;;;;;22.66;60.84;94875.00;10535778;28;20506;-72
2021/08/08 22:18:16;;;;;;;3.10;2.15;;;;;;;22.55;60.69;94871.16;10535700;28;20046;-72
2021/08/08 22:23:17;;;;;;;2.93;2.13;;;;;;;22.61;59.43;94871.72;10536034;28;20016;-72
2021/08/08 22:28:17;;;;;;;4.57;2.70;;;;;;;22.63;59.41;94867.50;10528659;28;20060;-72
2021/08/08 22:33:18;;;;;;;3.42;2.33;;;;;;;22.70;61.16;94875.91;10493027;28;20028;-72
2021/08/08 22:38:18;;;;;;;2.70;1.80;;;;;;;22.59;61.87;94879.47;10493392;28;20032;-72
2021/08/08 22:43:19;;;;;;;4.47;2.33;;;;;;;22.62;61.92;94876.03;10497453;28;20063;-72
2021/08/08 22:48:24;;;;;;;4.65;2.30;;;;;;;22.49;62.41;94880.75;10534505;28;20032;-72
2021/08/08 22:53:24;;;;;;;5.05;2.25;;;;;;;22.45;63.66;94879.84;10534043;28;20028;-72
2021/08/08 22:58:25;;;;;;;4.40;1.90;;;;;;;22.31;64.70;94886.47;10515941;28;20088;-72
2021/08/08 23:03:25;;;;;;;2.97;2.35;;;;;;;22.13;66.26;94893.31;10530168;28;20047;-73
2021/08/08 23:08:25;;;;;;;2.40;2.03;;;;;;;22.09;69.18;94895.13;10489718;28;20582;-74
2021/08/08 23:13:26;;;;;;;4.20;2.60;;;;;;;22.05;69.64;94894.22;10490488;28;20318;-73